Time;durP1;ratioP1;P1;durP2;ratioP2;P2;SDS_P1;SDS_P2;PMS_P1;PMS_P2;Temp;Humidity;BMP_temperature;BMP_pressure;BME280_temperature;BME280_humidity;BME280_pressure;Samples;Min_cycle;Max_cycle;Signal;HPM_P1;HPM_P2
2023/01/04 00:00:18;;;;;;;63.47;25.85;;;;;;;1.19;100.00;101744.84;5094061;28;20024;-78
2023/01/04 00:02:45;;;;;;;62.85;25.45;;;;;;;1.20;100.00;101737.19;5093935;28;20028;-78
2023/01/04 00:05:11;;;;;;;59.63;25.45;;;;;;;1.21;100.00;101739.59;5092744;28;20024;-77
2023/01/04 00:07:38;;;;;;;52.70;26.67;;;;;;;1.22;100.00;101743.22;5092562;28;20020;-77
2023/01/04 00:10:05;;;;;;;53.78;24.63;;;;;;;1.23;100.00;101728.75;5093983;28;20067;-76
2023/01/04 00:12:30;;;;;;;58.25;27.05;;;;;;;1.25;100.00;101728.38;5092432;28;20028;-76
2023/01/04 00:14:55;;;;;;;57.83;25.15;;;;;;;1.24;100.00;101719.13;5092568;28;20484;-77
2023/01/04 00:17:22;;;;;;;51.90;26.00;;;;;;;1.30;100.00;101726.00;5095731;28;20066;-77
2023/01/04 00:19:57;;;;;;;59.67;26.65;;;;;;;1.32;100.00;101712.31;5098532;28;20024;-77
2023/01/04 00:22:44;;;;;;;65.07;28.27;;;;;;;1.40;100.00;101721.63;5113474;28;20023;-77
2023/01/04 00:25:16;;;;;;;59.97;25.42;;;;;;;1.47;100.00;101711.19;5113846;28;20031;-78
2023/01/04 00:27:56;;;;;;;52.63;25.00;;;;;;;1.64;100.00;101715.28;5117976;28;20067;-77
2023/01/04 00:30:43;;;;;;;70.22;30.15;;;;;;;1.76;100.00;101708.47;5081094;28;20111;-78
2023/01/04 00:33:20;;;;;;;88.00;36.17;;;;;;;1.79;100.00;101713.31;5098013;28;20042;-77
2023/01/04 00:35:46;;;;;;;83.80;35.83;;;;;;;1.72;100.00;101705.63;5097015;28;20469;-77
2023/01/04 00:38:33;;;;;;;69.88;30.80;;;;;;;1.60;100.00;101708.03;5096995;28;20012;-77
2023/01/04 00:40:58;;;;;;;66.63;29.85;;;;;;;1.48;100.00;101718.44;5097076;28;20051;-76
2023/01/04 00:43:28;;;;;;;72.20;30.58;;;;;;;1.36;100.00;101715.94;5095331;28;20489;-77
2023/01/04 00:45:53;;;;;;;71.70;29.15;;;;;;;1.31;100.00;101713.50;5096756;28;20039;-78
2023/01/04 00:48:23;;;;;;;63.28;27.48;;;;;;;1.29;100.00;101715.13;5078765;28;20036;-78
2023/01/04 00:50:50;;;;;;;62.30;26.67;;;;;;;1.27;100.00;101711.88;5079589;28;20050;-78
2023/01/04 00:53:17;;;;;;;60.17;26.90;;;;;;;1.28;100.00;101719.13;5079459;28;20122;-78
2023/01/04 00:55:44;;;;;;;58.15;27.17;;;;;;;1.27;100.00;101718.31;5079360;28;20362;-78
2023/01/04 00:58:12;;;;;;;64.28;26.05;;;;;;;1.26;100.00;101716.72;5096026;28;20036;-76
2023/01/04 01:00:37;;;;;;;63.10;26.50;;;;;;;1.26;100.00;101715.91;5078841;28;20131;-77
2023/01/04 01:03:04;;;;;;;56.83;25.33;;;;;;;1.25;100.00;101717.94;5097629;28;20062;-78
2023/01/04 01:05:35;;;;;;;66.68;26.70;;;;;;;1.23;100.00;101719.50;5079196;28;20036;-76
2023/01/04 01:10:54;;;;;;;67.03;27.42;;;;;;;1.20;100.00;101725.94;5097063;28;20108;-78
2023/01/04 01:13:22;;;;;;;60.00;26.35;;;;;;;1.17;100.00;101721.88;5096926;28;20522;-77
2023/01/04 01:15:50;;;;;;;60.90;29.15;;;;;;;1.13;100.00;101721.06;5095801;28;20043;-78
2023/01/04 01:18:24;;;;;;;56.90;24.88;;;;;;;1.11;100.00;101717.81;5097133;28;20028;-78
2023/01/04 01:20:50;;;;;;;53.65;26.77;;;;;;;1.04;100.00;101706.53;5096916;28;20027;-77
2023/01/04 01:23:16;;;;;;;56.47;25.38;;;;;;;1.03;100.00;101714.19;5095705;28;20465;-78
2023/01/04 01:25:44;;;;;;;52.47;26.02;;;;;;;1.04;100.00;101710.16;5080463;28;20028;-77
2023/01/04 01:28:10;;;;;;;59.35;25.55;;;;;;;1.01;100.00;101708.13;5096640;28;20058;-79
2023/01/04 01:30:42;;;;;;;49.95;24.42;;;;;;;0.98;100.00;101702.47;5096302;28;20119;-77
2023/01/04 01:33:09;;;;;;;45.75;23.42;;;;;;;0.98;100.00;101699.66;5095440;28;20040;-77
2023/01/04 01:35:36;;;;;;;45.30;22.45;;;;;;;0.96;100.00;101697.25;5095256;28;20036;-77
2023/01/04 01:38:10;;;;;;;50.53;23.83;;;;;;;0.95;100.00;101694.84;5095189;28;20374;-78
2023/01/04 01:40:57;;;;;;;48.25;22.02;;;;;;;0.95;100.00;101690.03;5096462;28;20039;-77
2023/01/04 01:43:47;;;;;;;50.28;20.90;;;;;;;0.96;100.00;101693.66;5096627;28;20028;-79
2023/01/04 01:46:30;;;;;;;47.28;21.08;;;;;;;0.93;100.00;101677.53;5096663;28;20069;-78
2023/01/04 01:49:15;;;;;;;46.28;18.88;;;;;;;0.88;100.00;101664.63;5095531;28;20107;-78
2023/01/04 01:51:43;;;;;;;42.78;19.73;;;;;;;0.93;100.00;101675.53;5096605;28;20024;-78
2023/01/04 01:54:16;;;;;;;42.28;20.45;;;;;;;0.93;100.00;101669.09;5078156;28;20032;-79
2023/01/04 01:56:43;;;;;;;47.08;19.23;;;;;;;0.92;100.00;101671.09;5078242;28;20090;-78
2023/01/04 01:59:11;;;;;;;35.65;17.88;;;;;;;0.92;100.00;101670.28;5078214;28;20039;-77
2023/01/04 02:01:37;;;;;;;40.03;17.60;;;;;;;0.92;100.00;101664.66;5061219;28;20032;-77
2023/01/04 02:04:04;;;;;;;36.55;17.50;;;;;;;0.91;100.00;101663.06;5094783;28;20035;-79
2023/01/04 02:06:38;;;;;;;37.58;17.17;;;;;;;0.89;100.00;101665.44;5096312;28;20375;-78
2023/01/04 02:09:04;;;;;;;33.97;17.13;;;;;;;0.88;100.00;101659.00;5095101;28;20031;-79
2023/01/04 02:11:31;;;;;;;30.40;15.93;;;;;;;0.88;100.00;101663.84;5095663;28;20510;-78
2023/01/04 02:14:26;;;;;;;30.45;15.90;;;;;;;0.88;100.00;101659.00;5076752;28;20028;-78
2023/01/04 02:17:04;;;;;;;31.83;15.45;;;;;;;0.86;100.00;101652.19;5087581;28;20097;-77
2023/01/04 02:19:54;;;;;;;33.22;14.88;;;;;;;0.85;100.00;101656.19;5093673;28;20028;-78
2023/01/04 02:23:00;;;;;;;32.03;14.73;;;;;;;0.85;100.00;101647.75;5094535;28;20032;-78
2023/01/04 02:26:03;;;;;;;43.67;16.90;;;;;;;0.84;100.00;101646.13;5094813;28;20032;-79
2023/01/04 02:29:02;;;;;;;35.47;15.40;;;;;;;0.80;100.00;101643.31;5093357;28;20028;-77
2023/01/04 02:32:08;;;;;;;31.40;15.15;;;;;;;0.78;100.00;101642.06;5094206;28;20389;-78
2023/01/04 02:35:27;;;;;;;33.00;15.30;;;;;;;0.72;100.00;101624.75;5093034;28;20028;-77
2023/01/04 02:38:26;;;;;;;34.17;16.52;;;;;;;0.68;100.00;101635.19;5011534;28;20065;-77
2023/01/04 02:41:14;;;;;;;33.00;17.63;;;;;;;0.60;100.00;101627.91;5011891;28;20053;-78
2023/01/04 02:46:54;;;;;;;38.50;17.05;;;;;;;0.45;100.00;101618.56;5012604;28;20045;-77
2023/01/04 02:52:04;;;;;;;37.50;16.52;;;;;;;0.30;100.00;101608.44;5041689;28;20127;-78
2023/01/04 02:54:45;;;;;;;31.48;15.57;;;;;;;0.26;100.00;101607.59;5094068;28;20389;-77
2023/01/04 02:57:23;;;;;;;34.08;15.77;;;;;;;0.25;100.00;101614.41;5095538;28;20032;-76
2023/01/04 03:00:14;;;;;;;35.42;15.48;;;;;;;0.23;100.00;101611.16;5095230;28;20477;-78
2023/01/04 03:06:15;;;;;;;36.40;14.85;;;;;;;0.20;100.00;101599.91;5094849;28;20038;-78
2023/01/04 03:09:04;;;;;;;33.97;15.13;;;;;;;0.20;100.00;101599.91;5094596;28;20110;-77
2023/01/04 03:14:52;;;;;;;32.75;15.23;;;;;;;0.17;100.00;101584.66;5093688;28;20050;-77
2023/01/04 03:17:21;;;;;;;31.70;13.23;;;;;;;0.14;100.00;101583.41;5094609;28;20468;-77
2023/01/04 03:19:51;;;;;;;30.27;14.60;;;;;;;0.13;100.00;101589.41;5093441;28;20466;-77
2023/01/04 03:37:25;;;;;;;31.95;13.50;;;;;;;0.01;100.00;101564.44;5093154;28;20514;-77
2023/01/04 03:50:10;;;;;;;19.17;10.52;;;;;;;0.12;100.00;101549.25;5093191;28;20047;-78
2023/01/04 03:52:36;;;;;;;20.60;10.63;;;;;;;0.16;100.00;101550.13;5051663;28;20052;-76
2023/01/04 03:55:04;;;;;;;20.13;11.48;;;;;;;0.20;100.00;101538.09;5079490;28;20044;-77
2023/01/04 03:57:30;;;;;;;24.83;11.65;;;;;;;0.23;100.00;101531.66;5092918;28;20028;-77
2023/01/04 04:00:00;;;;;;;24.42;11.23;;;;;;;0.26;100.00;101533.72;5092028;28;20070;-78
2023/01/04 04:02:28;;;;;;;26.30;10.73;;;;;;;0.29;100.00;101528.09;5076315;28;20043;-77
2023/01/04 04:10:28;;;;;;;20.45;10.30;;;;;;;0.38;100.00;101513.69;5093126;28;20097;-76
2023/01/04 04:12:54;;;;;;;18.38;10.43;;;;;;;0.39;100.00;101507.69;5094166;28;20429;-78
2023/01/04 04:15:21;;;;;;;23.02;12.25;;;;;;;0.42;100.00;101506.88;5091987;28;20032;-77
2023/01/04 04:17:48;;;;;;;22.15;10.77;;;;;;;0.42;100.00;101494.81;5092726;28;20027;-77
2023/01/04 04:20:25;;;;;;;23.83;11.20;;;;;;;0.46;100.00;101502.09;5092766;28;20036;-77
2023/01/04 04:22:52;;;;;;;19.00;11.48;;;;;;;0.49;100.00;101504.13;5094323;28;20031;-76
2023/01/04 04:25:19;;;;;;;23.88;11.07;;;;;;;0.50;100.00;101500.13;5094414;28;20044;-77
2023/01/04 04:27:45;;;;;;;24.00;11.80;;;;;;;0.52;100.00;101506.13;5095197;28;20044;-76
2023/01/04 04:30:12;;;;;;;23.40;11.82;;;;;;;0.53;100.00;101501.31;5094335;28;20055;-77
2023/01/04 04:32:38;;;;;;;26.27;12.02;;;;;;;0.53;100.00;101502.13;5095550;28;20028;-77
2023/01/04 04:35:04;;;;;;;23.75;11.50;;;;;;;0.54;100.00;101498.13;5100753;28;20028;-77
2023/01/04 04:37:33;;;;;;;27.15;12.43;;;;;;;0.54;100.00;101500.94;5111333;28;20008;-77
2023/01/04 04:40:00;;;;;;;28.75;12.93;;;;;;;0.56;100.00;101497.75;5114649;28;20024;-78
2023/01/04 04:42:26;;;;;;;27.92;14.57;;;;;;;0.54;100.00;101495.31;5115912;28;20069;-77
2023/01/04 04:44:53;;;;;;;24.60;12.73;;;;;;;0.55;100.00;101502.56;5103352;28;20056;-77
2023/01/04 04:47:19;;;;;;;24.83;12.52;;;;;;;0.55;100.00;101499.75;5077422;28;20043;-78
2023/01/04 04:49:46;;;;;;;25.60;13.43;;;;;;;0.52;100.00;101492.06;5094641;28;20024;-78
2023/01/04 04:52:13;;;;;;;24.92;13.50;;;;;;;0.53;100.00;101493.69;5095578;28;20024;-77
2023/01/04 04:54:39;;;;;;;23.58;12.93;;;;;;;0.53;100.00;101490.88;5092491;28;20032;-77
2023/01/04 04:57:05;;;;;;;30.05;13.48;;;;;;;0.54;100.00;101495.31;5093694;28;20074;-78
2023/01/04 04:59:31;;;;;;;27.15;13.50;;;;;;;0.52;100.00;101494.88;5092431;28;20032;-78
2023/01/04 05:01:58;;;;;;;24.83;12.75;;;;;;;0.55;100.00;101493.31;5094160;28;20097;-77
2023/01/04 05:04:23;;;;;;;26.20;13.25;;;;;;;0.51;100.00;101487.69;5090252;28;20044;-77
2023/01/04 05:06:51;;;;;;;26.52;15.35;;;;;;;0.54;100.00;101484.06;5093310;28;20035;-78
2023/01/04 05:09:18;;;;;;;30.70;13.85;;;;;;;0.54;100.00;101466.38;5092267;28;20024;-76
2023/01/04 05:14:28;;;;;;;25.42;14.52;;;;;;;0.55;100.00;101446.31;5097396;28;20178;-77
2023/01/04 05:16:54;;;;;;;27.92;15.02;;;;;;;0.57;100.00;101449.50;5097207;28;20160;-76
2023/01/04 05:19:22;;;;;;;28.13;14.88;;;;;;;0.58;100.00;101450.31;5095693;28;20036;-77
2023/01/04 05:21:49;;;;;;;26.70;14.88;;;;;;;0.60;100.00;101447.94;5097416;28;20024;-77
2023/01/04 05:24:17;;;;;;;30.42;14.73;;;;;;;0.61;100.00;101443.94;5097385;28;20115;-77
2023/01/04 05:26:42;;;;;;;30.70;14.98;;;;;;;0.61;100.00;101443.94;5095782;28;20031;-77
2023/01/04 05:30:49;;;;;;;32.38;14.48;;;;;;;0.64;100.00;101445.94;5095359;28;20024;-76
2023/01/04 05:31:59;;;;;;;27.65;14.77;;;;;;;0.64;100.00;101436.69;5096855;28;20404;-78
2023/01/04 05:34:27;;;;;;;30.17;15.32;;;;;;;0.64;100.00;101434.69;5097169;28;20020;-77
2023/01/04 05:36:52;;;;;;;31.30;16.33;;;;;;;0.63;100.00;101435.88;5097001;28;20070;-77
2023/01/04 05:39:20;;;;;;;28.15;15.50;;;;;;;0.64;100.00;101433.88;5096674;28;20469;-77
2023/01/04 05:44:31;;;;;;;31.20;16.13;;;;;;;0.63;100.00;101438.69;5096004;28;20039;-76
2023/01/04 05:46:56;;;;;;;34.05;15.45;;;;;;;0.63;100.00;101429.44;5095858;28;20028;-77
2023/01/04 05:49:23;;;;;;;33.60;17.00;;;;;;;0.63;100.00;101421.00;5096099;28;20036;-77
2023/01/04 05:51:49;;;;;;;32.83;17.02;;;;;;;0.58;100.00;101414.56;5096393;28;20458;-78
2023/01/04 05:54:15;;;;;;;31.50;16.42;;;;;;;0.62;100.00;101420.19;5096114;28;20035;-78
2023/01/04 05:56:41;;;;;;;30.70;15.90;;;;;;;0.64;100.00;101414.19;5096684;28;20028;-77
2023/01/04 05:59:06;;;;;;;30.42;15.88;;;;;;;0.63;100.00;101407.75;5096516;28;20108;-76
2023/01/04 06:01:33;;;;;;;31.15;16.55;;;;;;;0.59;100.00;101401.31;5094522;28;20107;-75
2023/01/04 06:03:59;;;;;;;33.72;17.02;;;;;;;0.61;100.00;101408.16;5096251;28;20031;-79
2023/01/04 06:06:25;;;;;;;31.98;16.50;;;;;;;0.64;100.00;101402.94;5077535;28;20035;-79
2023/01/04 06:08:53;;;;;;;37.80;18.58;;;;;;;0.61;100.00;101402.53;5094746;28;20438;-76
2023/01/04 06:11:20;;;;;;;31.42;16.88;;;;;;;0.58;100.00;101402.53;5096475;28;20469;-78
2023/01/04 06:13:46;;;;;;;37.80;16.98;;;;;;;0.61;100.00;101408.16;5096059;28;20039;-78
2023/01/04 06:16:13;;;;;;;30.45;16.45;;;;;;;0.61;100.00;101419.38;5096209;28;20024;-78
2023/01/04 06:18:40;;;;;;;34.90;17.90;;;;;;;0.63;100.00;101412.56;5095948;28;20084;-78
2023/01/04 06:21:06;;;;;;;37.90;16.92;;;;;;;0.61;100.00;101408.16;5095729;28;20435;-78
2023/01/04 06:23:33;;;;;;;32.47;17.00;;;;;;;0.63;100.00;101402.13;5094707;28;20126;-77
2023/01/04 06:26:07;;;;;;;31.98;17.88;;;;;;;0.59;100.00;101396.50;5095941;28;20111;-77
2023/01/04 06:28:32;;;;;;;28.92;16.42;;;;;;;0.60;100.00;101394.50;5094760;28;20020;-81
2023/01/04 06:31:04;;;;;;;30.73;16.98;;;;;;;0.60;100.00;101378.44;5093250;28;20036;-80
2023/01/04 06:33:30;;;;;;;33.00;16.17;;;;;;;0.64;100.00;101372.00;5075429;28;20024;-79
2023/01/04 06:35:56;;;;;;;29.00;15.00;;;;;;;0.66;100.00;101373.22;5093099;28;20500;-82
2023/01/04 06:38:21;;;;;;;34.65;15.95;;;;;;;0.71;100.00;101361.59;5093502;28;20031;-82
2023/01/04 06:40:47;;;;;;;30.67;15.82;;;;;;;0.73;100.00;101359.16;5093120;28;20536;-82
2023/01/04 06:43:12;;;;;;;30.20;15.85;;;;;;;0.80;100.00;101347.13;5091644;28;20039;-81
2023/01/04 06:45:37;;;;;;;29.75;15.98;;;;;;;0.84;100.00;101348.72;5092962;28;20044;-81
2023/01/04 06:48:03;;;;;;;29.58;16.10;;;;;;;0.89;100.00;101347.53;5093604;28;20024;-81
2023/01/04 06:50:28;;;;;;;29.00;14.45;;;;;;;0.94;100.00;101333.88;5091958;28;20427;-82
2023/01/04 06:52:54;;;;;;;24.48;13.20;;;;;;;0.98;100.00;101339.50;5091712;28;20492;-82
2023/01/04 06:55:19;;;;;;;23.60;13.88;;;;;;;1.04;100.00;101335.88;5091622;28;20040;-82
2023/01/04 06:57:45;;;;;;;29.08;13.32;;;;;;;1.11;100.00;101337.88;5092872;28;20036;-82
2023/01/04 07:00:11;;;;;;;28.45;12.23;;;;;;;1.16;100.00;101331.84;5092888;28;20143;-82
2023/01/04 07:02:36;;;;;;;21.65;12.05;;;;;;;1.15;100.00;101327.44;5092759;28;20161;-82
2023/01/04 07:05:02;;;;;;;22.98;11.75;;;;;;;1.22;100.00;101335.06;5093011;28;20024;-82
2023/01/04 07:07:28;;;;;;;18.73;11.55;;;;;;;1.30;100.00;101337.47;5095042;28;20103;-83
2023/01/04 07:09:53;;;;;;;17.52;11.10;;;;;;;1.31;100.00;101322.16;5094993;28;20023;-83
2023/01/04 07:12:18;;;;;;;18.33;9.98;;;;;;;1.33;100.00;101313.34;5094718;28;20035;-82
2023/01/04 07:14:44;;;;;;;20.63;10.52;;;;;;;1.40;100.00;101305.66;5094671;28;20111;-82
2023/01/04 07:17:09;;;;;;;25.02;11.77;;;;;;;1.48;100.00;101304.44;5094750;28;20020;-84
2023/01/04 07:19:34;;;;;;;14.65;9.38;;;;;;;1.53;100.00;101308.06;5094570;28;20050;-84
2023/01/04 07:22:00;;;;;;;13.85;8.85;;;;;;;1.53;100.00;101294.78;5090949;28;20054;-82
2023/01/04 07:24:27;;;;;;;18.55;10.40;;;;;;;1.63;100.00;101304.41;5092203;28;20397;-84
2023/01/04 07:26:52;;;;;;;20.35;10.20;;;;;;;1.73;100.00;101303.56;5093491;28;20119;-81
2023/01/04 07:29:18;;;;;;;17.55;9.80;;;;;;;1.76;100.00;101294.28;5076322;28;20115;-83
2023/01/04 07:31:46;;;;;;;19.92;11.10;;;;;;;1.87;100.00;101297.88;5092618;28;20028;-80
2023/01/04 07:34:13;;;;;;;17.75;10.63;;;;;;;1.94;100.00;101297.06;5091780;28;20168;-80
2023/01/04 07:36:40;;;;;;;17.35;11.60;;;;;;;1.98;100.00;101295.81;5095252;28;20540;-80
2023/01/04 07:39:15;;;;;;;20.17;11.38;;;;;;;2.05;100.00;101295.78;5095248;28;20040;-81
2023/01/04 07:41:42;;;;;;;20.38;10.32;;;;;;;2.10;100.00;101286.09;5096026;28;20032;-81
2023/01/04 07:44:10;;;;;;;22.55;9.68;;;;;;;2.13;100.00;101279.66;5078738;28;20051;-81
2023/01/04 07:46:36;;;;;;;19.17;10.68;;;;;;;2.16;100.00;101281.63;5078368;28;20073;-80
2023/01/04 07:49:03;;;;;;;17.33;10.60;;;;;;;2.19;100.00;101269.56;5095874;28;20040;-81
2023/01/04 07:51:37;;;;;;;18.10;10.32;;;;;;;2.27;100.00;101283.19;5096924;28;20066;-82
2023/01/04 07:54:04;;;;;;;18.70;10.48;;;;;;;2.28;100.00;101279.16;5097079;28;20032;-83
2023/01/04 07:56:30;;;;;;;20.83;11.55;;;;;;;2.39;100.00;101272.66;5093033;28;20027;-82
2023/01/04 07:58:58;;;;;;;16.13;9.90;;;;;;;2.44;100.00;101272.22;5094091;28;20031;-82
2023/01/04 08:01:25;;;;;;;23.35;10.52;;;;;;;2.52;100.00;101268.13;5092883;28;20140;-78
2023/01/04 08:04:00;;;;;;;15.75;9.38;;;;;;;2.55;100.00;101256.00;5092537;28;20039;-82
2023/01/04 08:06:26;;;;;;;16.45;9.77;;;;;;;2.57;100.00;101251.56;5093862;28;20100;-81
2023/01/04 08:08:52;;;;;;;19.42;9.55;;;;;;;2.67;100.00;101258.31;5093334;28;20036;-80
2023/01/04 08:11:24;;;;;;;18.73;10.70;;;;;;;2.71;100.00;101256.28;5093994;28;20067;-81
2023/01/04 08:13:58;;;;;;;13.73;8.38;;;;;;;2.80;100.00;101253.78;5095286;28;20478;-80
2023/01/04 08:16:34;;;;;;;16.33;9.05;;;;;;;2.89;100.00;101244.81;5093838;28;20362;-81
2023/01/04 08:19:04;;;;;;;15.38;8.82;;;;;;;3.06;100.00;101255.16;5094506;28;20500;-81
2023/01/04 08:21:35;;;;;;;16.98;8.70;;;;;;;3.20;100.00;101246.53;5075721;28;20557;-81
2023/01/04 08:24:02;;;;;;;19.07;9.83;;;;;;;3.31;100.00;101233.13;5092767;28;20035;-83
2023/01/04 08:26:29;;;;;;;17.42;9.13;;;;;;;3.46;100.00;101233.75;5092726;28;20744;-85
2023/01/04 08:28:55;;;;;;;15.73;8.13;;;;;;;3.57;100.00;101221.13;5075676;28;20116;-85
2023/01/04 08:31:24;;;;;;;19.17;8.32;;;;;;;3.75;100.00;101214.41;5092687;28;20067;-86
2023/01/04 08:33:50;;;;;;;14.18;8.07;;;;;;;3.84;100.00;101207.03;5094770;28;20043;-84
2023/01/04 08:36:30;;;;;;;15.30;9.52;;;;;;;3.93;100.00;101204.50;5092827;28;20035;-84
2023/01/04 08:39:14;;;;;;;15.20;9.13;;;;;;;4.11;100.00;101200.63;5073437;28;20316;-84
2023/01/04 08:42:00;;;;;;;15.07;8.52;;;;;;;4.21;100.00;101199.69;5092316;28;20063;-84
2023/01/04 08:44:25;;;;;;;17.38;7.95;;;;;;;4.28;100.00;101177.72;5106918;28;20126;-81
2023/01/04 08:46:52;;;;;;;14.93;8.07;;;;;;;4.40;100.00;101179.16;5119069;28;20036;-77
2023/01/04 08:49:18;;;;;;;16.55;8.45;;;;;;;4.46;100.00;101168.97;5118246;28;20084;-81
2023/01/04 08:51:43;;;;;;;14.18;7.85;;;;;;;4.46;100.00;101157.63;5117825;28;20055;-83
2023/01/04 08:54:09;;;;;;;12.13;8.15;;;;;;;4.47;100.00;101153.56;5107023;28;20485;-82
2023/01/04 08:56:35;;;;;;;17.85;8.75;;;;;;;4.60;100.00;101156.59;5101719;28;20032;-83
2023/01/04 08:59:00;;;;;;;13.70;7.13;;;;;;;4.73;100.00;101158.38;5096941;28;20466;-81
2023/01/04 09:01:26;;;;;;;12.98;7.75;;;;;;;4.90;100.00;101148.75;5094905;28;20028;-81
2023/01/04 09:03:51;;;;;;;10.85;7.25;;;;;;;4.98;100.00;101142.94;5097271;28;20065;-82
2023/01/04 09:06:17;;;;;;;11.50;7.53;;;;;;;5.07;100.00;101141.13;5097111;28;20027;-83
2023/01/04 09:08:43;;;;;;;9.57;6.45;;;;;;;5.15;100.00;101144.63;5097048;28;20564;-83
2023/01/04 09:11:16;;;;;;;16.52;7.57;;;;;;;5.22;100.00;101141.66;5098142;28;20059;-85
2023/01/04 09:13:42;;;;;;;13.88;7.93;;;;;;;5.26;100.00;101122.53;5080061;28;20047;-83
2023/01/04 09:16:10;;;;;;;14.30;8.82;;;;;;;5.32;100.00;101129.28;5097481;28;20071;-84
2023/01/04 09:18:36;;;;;;;18.88;8.18;;;;;;;5.35;100.00;101123.53;5097482;28;20412;-85
2023/01/04 09:21:27;;;;;;;14.63;7.75;;;;;;;5.43;100.00;101109.25;5097432;28;20019;-83
2023/01/04 09:23:52;;;;;;;13.95;7.47;;;;;;;5.50;100.00;101095.69;5078898;28;20040;-85
2023/01/04 09:26:23;;;;;;;15.05;6.70;;;;;;;5.56;100.00;101091.13;5097171;28;20035;-84
2023/01/04 09:28:50;;;;;;;11.02;6.35;;;;;;;5.67;100.00;101085.22;5097367;28;20423;-82
2023/01/04 09:31:18;;;;;;;14.52;6.78;;;;;;;5.70;100.00;101081.47;5097792;28;20028;-85
2023/01/04 09:33:44;;;;;;;9.32;6.28;;;;;;;5.74;100.00;101073.72;5096557;28;20028;-84
2023/01/04 09:36:12;;;;;;;11.85;5.50;;;;;;;5.77;100.00;101070.78;5099027;28;20024;-85
2023/01/04 09:38:37;;;;;;;13.32;5.65;;;;;;;5.85;100.00;101062.09;5097276;28;20489;-84
2023/01/04 09:41:12;;;;;;;6.75;4.43;;;;;;;5.91;100.00;101063.16;5095463;28;20071;-85
2023/01/04 09:44:10;;;;;;;11.52;6.30;;;;;;;6.03;100.00;101045.47;5095129;28;20036;-86
2023/01/04 09:46:52;;;;;;;11.45;4.97;;;;;;;6.00;100.00;101020.78;5084164;28;20468;-85
2023/01/04 09:49:43;;;;;;;11.13;5.22;;;;;;;6.07;100.00;101029.13;5095786;28;20480;-85
2023/01/04 09:52:12;;;;;;;10.07;5.65;;;;;;;6.21;100.00;101028.75;5096877;28;20060;-87
2023/01/04 09:54:51;;;;;;;10.43;5.30;;;;;;;6.14;100.00;101000.59;5095421;28;20024;-85
2023/01/04 09:57:27;;;;;;;8.65;4.50;;;;;;;6.32;100.00;101008.66;5094224;28;20052;-85
2023/01/04 10:00:09;;;;;;;8.98;4.25;;;;;;;6.45;100.00;101006.66;5078173;28;20031;-85
2023/01/04 10:02:41;;;;;;;9.55;4.32;;;;;;;6.57;100.00;101006.72;5095001;28;20068;-86
2023/01/04 10:05:06;;;;;;;;;;;;;;;6.62;100.00;100997.66;5097081;28;20365;-86
2023/01/04 10:07:32;;;;;;;9.30;3.63;;;;;;;6.64;100.00;100992.31;5095200;28;19937;-86
2023/01/04 10:09:59;;;;;;;13.27;3.42;;;;;;;6.72;100.00;100989.28;5094794;28;20116;-85
2023/01/04 10:12:32;;;;;;;6.93;3.78;;;;;;;6.68;100.00;100983.72;5096072;28;20094;-84
2023/01/04 10:15:01;;;;;;;9.20;3.60;;;;;;;6.64;100.00;100963.94;5094499;28;20032;-86
2023/01/04 10:17:44;;;;;;;12.60;4.45;;;;;;;6.66;100.00;100952.91;5095809;28;20032;-86
2023/01/04 10:20:28;;;;;;;6.53;3.50;;;;;;;6.68;100.00;100948.84;5095999;28;20035;-85
2023/01/04 10:22:56;;;;;;;16.58;3.97;;;;;;;6.74;100.00;100941.34;5095848;28;20133;-84
2023/01/04 10:25:27;;;;;;;7.80;3.72;;;;;;;6.81;100.00;100932.63;5096144;28;20059;-85
2023/01/04 10:28:22;;;;;;;6.22;3.25;;;;;;;6.87;100.00;100925.94;5095786;28;20084;-86
2023/01/04 10:30:59;;;;;;;7.72;4.05;;;;;;;7.06;100.00;100912.75;5095805;28;20036;-85
2023/01/04 10:33:30;;;;;;;8.60;3.47;;;;;;;7.25;100.00;100903.22;5096860;28;20024;-83
2023/01/04 10:35:56;;;;;;;5.50;3.00;;;;;;;7.39;100.00;100897.06;5096402;28;20032;-85
2023/01/04 10:38:28;;;;;;;5.05;3.35;;;;;;;7.52;100.00;100891.38;5095463;28;20069;-86
2023/01/04 10:40:54;;;;;;;10.40;3.58;;;;;;;7.62;100.00;100893.03;5095101;28;20028;-86
2023/01/04 10:43:39;;;;;;;4.68;3.08;;;;;;;7.63;100.00;100880.41;5094806;28;20028;-85
2023/01/04 10:46:05;;;;;;;7.60;2.80;;;;;;;7.68;100.00;100890.41;5093879;28;20039;-86
2023/01/04 10:48:39;;;;;;;5.22;3.28;;;;;;;7.69;100.00;100870.03;5095691;28;20041;-86
2023/01/04 10:51:06;;;;;;;6.47;2.78;;;;;;;7.75;100.00;100870.25;5094733;28;20031;-85
2023/01/04 10:53:56;;;;;;;5.82;3.08;;;;;;;7.82;100.00;100855.78;5095750;28;20028;-86
2023/01/04 10:56:27;;;;;;;7.50;3.05;;;;;;;7.90;100.00;100855.06;5094520;28;20047;-87
2023/01/04 10:59:11;;;;;;;7.50;2.97;;;;;;;7.92;100.00;100849.69;5095345;28;20035;-85
2023/01/04 11:01:41;;;;;;;6.22;3.20;;;;;;;7.86;100.00;100822.31;5095663;28;20040;-86
2023/01/04 11:04:12;;;;;;;6.65;2.10;;;;;;;7.95;100.00;100848.00;5094183;28;20036;-86
2023/01/04 11:06:43;;;;;;;8.40;2.80;;;;;;;7.89;100.00;100844.94;5093724;28;20153;-86
2023/01/04 11:09:22;;;;;;;9.13;3.63;;;;;;;7.88;100.00;100836.88;5076337;28;20039;-85
2023/01/04 11:11:49;;;;;;;4.00;2.00;;;;;;;7.80;100.00;100827.81;5076830;28;20295;-87
2023/01/04 11:14:15;;;;;;;5.38;2.17;;;;;;;7.79;100.00;100816.88;5094098;28;20103;-86
2023/01/04 11:16:45;;;;;;;5.65;2.70;;;;;;;7.80;100.00;100824.16;5094052;28;20438;-86
2023/01/04 11:19:11;;;;;;;7.60;2.92;;;;;;;7.76;100.00;100812.91;5094836;28;20032;-85
2023/01/04 11:21:43;;;;;;;6.43;2.45;;;;;;;7.72;100.00;100815.06;5095066;28;20185;-85
2023/01/04 11:24:10;;;;;;;6.95;3.70;;;;;;;7.70;100.00;100797.69;5093617;28;20034;-86
2023/01/04 11:26:42;;;;;;;8.02;3.15;;;;;;;7.68;100.00;100802.22;5093500;28;20115;-86
2023/01/04 11:29:26;;;;;;;6.68;2.38;;;;;;;7.70;100.00;100791.19;5095032;28;20052;-85
2023/01/04 11:32:01;;;;;;;5.90;2.20;;;;;;;7.73;100.00;100782.53;5094841;28;20031;-86
2023/01/04 11:34:43;;;;;;;7.80;2.30;;;;;;;7.78;100.00;100781.16;5093570;28;20036;-86
2023/01/04 11:37:28;;;;;;;;;;;;;;;7.79;100.00;100777.03;5095602;28;20020;-86
2023/01/04 11:40:16;;;;;;;4.97;2.67;;;;;;;7.80;100.00;100765.22;5094303;28;19908;-86
2023/01/04 11:42:45;;;;;;;4.90;2.17;;;;;;;7.74;100.00;100749.19;5094326;28;20481;-87
2023/01/04 11:45:24;;;;;;;5.72;3.03;;;;;;;7.77;100.00;100745.41;5093922;28;20535;-87
2023/01/04 11:47:56;;;;;;;5.22;2.05;;;;;;;7.79;100.00;100738.00;5094965;28;20044;-87
2023/01/04 11:50:42;;;;;;;5.47;1.52;;;;;;;7.78;100.00;100735.63;5093274;28;20088;-85
2023/01/04 11:53:26;;;;;;;5.13;2.00;;;;;;;7.75;100.00;100734.53;5093313;28;20113;-86
2023/01/04 11:56:07;;;;;;;4.63;2.22;;;;;;;7.63;100.00;100718.28;5094615;28;20024;-86
2023/01/04 11:58:33;;;;;;;4.35;2.45;;;;;;;7.54;100.00;100710.50;5094374;28;20027;-85
2023/01/04 12:00:58;;;;;;;3.05;2.10;;;;;;;7.42;100.00;100705.66;5094063;28;20023;-86
2023/01/04 12:03:37;;;;;;;7.93;2.63;;;;;;;7.24;100.00;100694.13;5094581;28;20020;-85
2023/01/04 12:06:12;;;;;;;5.50;2.47;;;;;;;7.17;100.00;100696.44;5092863;28;20036;-85
2023/01/04 12:08:38;;;;;;;6.93;2.42;;;;;;;7.15;100.00;100681.88;5093079;28;20024;-86
2023/01/04 12:11:05;;;;;;;6.35;1.75;;;;;;;7.23;100.00;100669.00;5076505;28;20020;-86
2023/01/04 12:13:31;;;;;;;3.90;1.70;;;;;;;7.32;100.00;100674.78;5092813;28;20087;-86
2023/01/04 12:15:59;;;;;;;3.70;1.75;;;;;;;7.31;100.00;100658.97;5092791;28;20035;-86
2023/01/04 12:18:28;;;;;;;3.40;1.75;;;;;;;7.29;100.00;100670.00;5092753;28;20039;-86
2023/01/04 12:21:03;;;;;;;8.68;1.85;;;;;;;7.31;100.00;100639.88;5091130;28;20112;-84
2023/01/04 12:23:32;;;;;;;2.78;1.65;;;;;;;7.32;100.00;100644.31;5092729;28;20032;-87